Time;durP1;ratioP1;P1;durP2;ratioP2;P2;SDS_P1;SDS_P2;PMS_P1;PMS_P2;Temp;Humidity;BMP_temperature;BMP_pressure;BME280_temperature;BME280_humidity;BME280_pressure;Samples;Min_cycle;Max_cycle;Signal;HPM_P1;HPM_P2
2022/11/07 00:01:18;;;;;;;5.20;0.90;;;;;;;9.47;65.48;94601.63;5041011;28;20394;-88
2022/11/07 00:03:43;;;;;;;1.55;0.90;;;;;;;9.47;66.05;94601.63;5024200;28;20043;-88
2022/11/07 00:06:14;;;;;;;3.38;1.00;;;;;;;9.39;68.51;94598.69;5040725;28;20025;-88
2022/11/07 00:08:40;;;;;;;3.88;1.30;;;;;;;9.38;69.46;94603.16;5041359;28;20468;-88
2022/11/07 00:11:06;;;;;;;3.00;1.00;;;;;;;9.37;69.77;94598.16;5024538;28;20029;-88
2022/11/07 00:13:32;;;;;;;7.78;1.25;;;;;;;9.37;70.04;94603.38;5024338;28;20434;-88
2022/11/07 00:16:03;;;;;;;1.48;0.80;;;;;;;9.36;72.62;94600.00;5040705;28;20067;-88
2022/11/07 00:18:29;;;;;;;4.32;1.10;;;;;;;9.21;71.89;94599.91;5040377;28;20334;-88
2022/11/07 00:20:54;;;;;;;3.92;1.20;;;;;;;9.20;70.67;94596.50;5039929;28;20028;-88
2022/11/07 00:23:20;;;;;;;3.03;1.00;;;;;;;9.21;71.38;94598.06;5024348;28;20029;-88
2022/11/07 00:25:45;;;;;;;4.40;1.23;;;;;;;9.18;70.90;94595.97;5024063;28;20083;-88
2022/11/07 00:28:10;;;;;;;1.98;1.05;;;;;;;9.38;68.94;94597.13;5024084;28;20029;-89
2022/11/07 00:30:36;;;;;;;1.75;1.00;;;;;;;9.39;69.60;94604.72;5023941;28;20035;-88
2022/11/07 00:33:02;;;;;;;1.95;0.80;;;;;;;9.40;68.99;94606.28;5023950;28;20056;-88
2022/11/07 00:35:27;;;;;;;1.17;0.70;;;;;;;9.40;69.59;94616.75;5023846;28;20025;-88
2022/11/07 00:37:54;;;;;;;4.00;0.98;;;;;;;9.25;70.70;94609.59;5023782;28;20025;-88
2022/11/07 00:40:19;;;;;;;1.33;0.80;;;;;;;9.17;73.28;94615.31;5039885;28;20032;-89
2022/11/07 00:42:45;;;;;;;2.15;0.90;;;;;;;9.12;73.00;94605.59;5023756;28;20029;-88
2022/11/07 00:45:12;;;;;;;1.63;0.70;;;;;;;8.83;73.58;94608.53;5024104;28;20116;-88
2022/11/07 00:47:39;;;;;;;1.95;0.82;;;;;;;8.88;75.11;94605.19;5040179;28;20056;-88
2022/11/07 00:50:05;;;;;;;1.40;0.75;;;;;;;8.93;74.34;94607.06;5023798;28;20025;-88
2022/11/07 00:52:30;;;;;;;2.25;0.68;;;;;;;8.86;73.92;94613.25;5023414;28;20029;-88
2022/11/07 00:54:55;;;;;;;2.20;0.80;;;;;;;8.86;72.33;94610.66;5023484;28;20032;-87
2022/11/07 00:57:21;;;;;;;1.48;0.80;;;;;;;8.98;71.40;94610.50;5039728;28;20024;-88
2022/11/07 00:59:46;;;;;;;1.42;0.60;;;;;;;9.05;71.57;94607.66;5023403;28;20025;-88
2022/11/07 01:02:12;;;;;;;1.05;0.60;;;;;;;9.13;70.69;94622.09;5023259;28;20025;-88
2022/11/07 01:07:21;;;;;;;1.13;0.63;;;;;;;9.10;71.08;94617.34;5042259;28;20032;-88
2022/11/07 01:09:47;;;;;;;4.05;1.02;;;;;;;9.08;69.80;94616.81;5039444;28;20025;-88
2022/11/07 01:12:15;;;;;;;3.40;0.95;;;;;;;9.17;70.46;94615.31;5023130;28;20035;-88
2022/11/07 01:14:43;;;;;;;2.67;0.50;;;;;;;9.10;73.50;94627.78;5022853;28;20024;-89
2022/11/07 01:17:10;;;;;;;3.88;0.70;;;;;;;9.20;71.16;94627.88;5023475;28;20022;-89
2022/11/07 01:19:36;;;;;;;4.53;0.80;;;;;;;9.23;70.43;94614.28;5023343;28;20324;-89
2022/11/07 01:22:04;;;;;;;2.53;0.77;;;;;;;9.25;70.40;94624.50;5022782;28;20131;-88
2022/11/07 01:24:29;;;;;;;2.88;0.75;;;;;;;9.12;71.36;94620.53;5023484;28;20468;-89
2022/11/07 01:26:55;;;;;;;2.50;0.80;;;;;;;9.15;70.63;94626.00;5023154;28;20060;-88
2022/11/07 01:29:20;;;;;;;2.13;1.05;;;;;;;9.28;69.41;94618.78;5023117;28;20366;-88
2022/11/07 01:31:48;;;;;;;1.60;1.00;;;;;;;9.39;68.87;94624.84;5023126;28;20095;-89
2022/11/07 01:34:17;;;;;;;2.60;1.13;;;;;;;9.41;69.92;94623.56;5023465;28;20024;-89
2022/11/07 01:36:43;;;;;;;2.08;0.98;;;;;;;9.42;69.94;94613.91;5023386;28;20052;-89
2022/11/07 01:39:19;;;;;;;2.80;1.15;;;;;;;9.36;71.46;94613.09;5023051;28;20051;-89
2022/11/07 01:41:45;;;;;;;2.78;1.08;;;;;;;9.15;71.88;94615.56;5023027;28;20051;-88
2022/11/07 01:44:10;;;;;;;2.45;0.93;;;;;;;9.12;71.81;94616.06;5022945;28;20029;-89
2022/11/07 01:46:45;;;;;;;1.67;0.82;;;;;;;9.05;75.32;94620.72;5039187;28;20119;-88
2022/11/07 01:49:16;;;;;;;4.50;1.05;;;;;;;9.11;71.84;94618.91;5023907;28;20025;-88
2022/11/07 01:52:20;;;;;;;1.27;0.75;;;;;;;9.30;69.19;94606.22;5022551;28;20055;-88
2022/11/07 01:55:19;;;;;;;1.65;0.75;;;;;;;9.31;69.74;94613.03;5044905;28;20033;-88
2022/11/07 01:58:03;;;;;;;1.90;1.00;;;;;;;9.30;70.34;94611.47;5023452;28;20063;-88
2022/11/07 02:00:34;;;;;;;1.83;0.70;;;;;;;9.18;70.76;94607.22;5023873;28;20024;-88
2022/11/07 02:03:13;;;;;;;0.98;0.50;;;;;;;9.22;71.29;94606.72;5039263;28;20028;-88
2022/11/07 02:05:44;;;;;;;2.05;0.75;;;;;;;9.22;70.23;94610.09;5040003;28;20025;-88
2022/11/07 02:08:10;;;;;;;1.55;0.85;;;;;;;9.18;71.34;94603.81;5022440;28;20082;-87
2022/11/07 02:10:38;;;;;;;1.17;0.70;;;;;;;9.16;71.55;94611.91;5022760;28;20389;-88
2022/11/07 02:13:11;;;;;;;1.80;0.85;;;;;;;9.12;72.02;94604.84;5038782;28;20025;-88
2022/11/07 02:15:39;;;;;;;3.50;0.80;;;;;;;9.14;70.84;94598.28;5040212;28;20029;-88
2022/11/07 02:18:04;;;;;;;2.53;0.80;;;;;;;9.08;68.24;94599.31;5038779;28;20047;-88
2022/11/07 02:20:32;;;;;;;1.73;0.73;;;;;;;9.17;68.08;94594.41;5038549;28;20025;-87
2022/11/07 02:23:17;;;;;;;1.13;0.50;;;;;;;9.23;67.79;94590.00;5022232;28;20033;-87
2022/11/07 02:25:43;;;;;;;4.03;0.68;;;;;;;9.14;68.22;94595.69;5039341;28;20024;-88
2022/11/07 02:28:09;;;;;;;3.50;0.70;;;;;;;9.14;66.69;94593.06;5042277;28;20066;-87
2022/11/07 02:30:35;;;;;;;3.40;0.57;;;;;;;9.15;67.56;94593.88;5042297;28;20495;-88
2022/11/07 02:33:01;;;;;;;2.22;0.80;;;;;;;9.06;68.22;94596.16;5042409;28;20020;-88
2022/11/07 02:35:50;;;;;;;1.15;0.63;;;;;;;9.09;66.68;94598.28;5025809;28;20119;-88
2022/11/07 02:38:25;;;;;;;1.00;0.47;;;;;;;9.21;65.50;94595.47;5025619;28;20143;-87
2022/11/07 02:40:57;;;;;;;1.02;0.57;;;;;;;9.20;65.94;94599.13;5042214;28;20025;-88
2022/11/07 02:43:26;;;;;;;2.97;1.00;;;;;;;9.25;66.87;94598.38;5026297;28;20033;-87
2022/11/07 02:45:52;;;;;;;1.25;0.70;;;;;;;9.32;66.33;94601.53;5025770;28;20032;-88
2022/11/07 02:48:17;;;;;;;0.80;0.57;;;;;;;9.20;68.65;94596.50;5025734;28;20048;-87
2022/11/07 02:50:43;;;;;;;2.08;0.80;;;;;;;9.14;69.03;94606.13;5025631;28;20021;-87
2022/11/07 02:53:09;;;;;;;1.45;0.90;;;;;;;9.16;69.95;94595.44;5025377;28;20025;-87
2022/11/07 02:55:34;;;;;;;1.17;0.73;;;;;;;9.17;70.70;94605.63;5025574;28;20389;-87
2022/11/07 02:57:59;;;;;;;1.95;0.82;;;;;;;8.91;72.25;94600.25;5025648;28;20017;-87
2022/11/07 03:00:25;;;;;;;0.82;0.60;;;;;;;8.96;70.08;94599.47;5025476;28;20052;-87
2022/11/07 03:02:50;;;;;;;1.15;0.65;;;;;;;8.97;70.84;94602.88;5041966;28;20029;-87
2022/11/07 03:05:17;;;;;;;2.42;0.80;;;;;;;8.98;70.57;94604.47;5025536;28;20057;-88
2022/11/07 03:07:47;;;;;;;1.75;0.70;;;;;;;9.10;69.04;94599.84;5025274;28;20430;-87
2022/11/07 03:10:13;;;;;;;1.83;0.80;;;;;;;9.22;66.98;94594.41;5025193;28;20056;-88
2022/11/07 03:12:39;;;;;;;0.95;0.68;;;;;;;9.11;69.65;94611.88;5025248;28;20032;-87
2022/11/07 03:15:06;;;;;;;1.67;0.60;;;;;;;9.11;69.31;94608.47;5041670;28;20418;-88
2022/11/07 03:17:32;;;;;;;1.92;0.60;;;;;;;9.14;68.87;94611.38;5041563;28;20048;-87
2022/11/07 03:19:57;;;;;;;0.73;0.50;;;;;;;9.23;66.30;94610.91;5025208;28;20124;-87
2022/11/07 03:22:23;;;;;;;1.70;0.52;;;;;;;9.18;67.39;94612.47;5041094;28;20430;-88
2022/11/07 03:24:48;;;;;;;4.60;0.50;;;;;;;9.21;66.52;94605.91;5025122;28;20029;-87
2022/11/07 03:27:14;;;;;;;1.75;0.70;;;;;;;9.08;67.93;94612.38;5024779;28;20021;-88
2022/11/07 03:29:40;;;;;;;1.17;0.70;;;;;;;9.00;67.75;94615.44;5025379;28;20318;-87
2022/11/07 03:32:05;;;;;;;5.70;0.75;;;;;;;8.99;67.35;94614.69;5024883;28;20027;-87
2022/11/07 03:34:33;;;;;;;3.15;0.70;;;;;;;9.07;65.78;94610.81;5024578;28;20028;-87
2022/11/07 03:36:59;;;;;;;1.05;0.70;;;;;;;9.10;65.80;94609.50;5024265;28;20119;-87
2022/11/07 03:39:24;;;;;;;6.18;0.50;;;;;;;9.23;64.73;94605.69;5024849;28;20123;-88
2022/11/07 03:41:50;;;;;;;1.55;0.50;;;;;;;9.19;64.74;94608.81;5041008;28;20025;-87
2022/11/07 03:44:16;;;;;;;2.10;0.30;;;;;;;9.34;63.62;94610.72;5041046;28;20113;-87
2022/11/07 03:46:41;;;;;;;2.58;0.50;;;;;;;9.32;63.67;94612.78;5024772;28;20028;-87
2022/11/07 03:49:07;;;;;;;2.05;0.40;;;;;;;9.22;64.56;94619.78;5024591;28;20325;-87
2022/11/07 03:51:32;;;;;;;0.95;0.47;;;;;;;9.07;66.05;94618.66;5026157;28;20079;-87
2022/11/07 03:53:58;;;;;;;1.23;0.52;;;;;;;8.88;69.56;94616.41;5032088;28;20035;-87
2022/11/07 03:56:23;;;;;;;0.45;0.45;;;;;;;8.94;68.35;94619.06;5029305;28;20020;-93
2022/11/07 03:58:48;;;;;;;1.02;0.47;;;;;;;9.04;69.02;94627.00;5044641;28;20017;-92
2022/11/07 04:01:14;;;;;;;0.88;0.55;;;;;;;9.14;67.91;94626.28;5035757;28;20110;-92
2022/11/07 04:03:39;;;;;;;2.30;0.73;;;;;;;9.15;68.81;94631.25;5050050;28;20024;-92
2022/11/07 04:06:05;;;;;;;2.08;0.80;;;;;;;9.19;68.51;94632.34;5025006;28;20127;-92
2022/11/07 04:08:31;;;;;;;1.80;0.60;;;;;;;9.13;69.02;94629.94;5024707;28;20412;-93
2022/11/07 04:11:01;;;;;;;1.42;0.60;;;;;;;9.02;70.29;94631.66;5024545;28;20059;-92
2022/11/07 04:18:56;;;;;;;2.45;0.80;;;;;;;9.10;68.90;94635.63;5047874;28;20147;-92
2022/11/07 04:21:22;;;;;;;1.23;0.82;;;;;;;9.21;67.21;94639.13;5024050;28;20078;-92
2022/11/07 04:23:47;;;;;;;2.00;0.65;;;;;;;9.14;68.52;94645.34;5040613;28;20029;-92
2022/11/07 04:28:59;;;;;;;1.08;0.40;;;;;;;9.10;67.65;94638.25;5043264;28;20077;-92
2022/11/07 04:31:25;;;;;;;0.50;0.50;;;;;;;8.97;69.02;94639.47;5024119;28;20021;-92
2022/11/07 04:33:50;;;;;;;0.95;0.50;;;;;;;8.85;69.16;94629.97;5024565;28;20090;-92
2022/11/07 04:36:16;;;;;;;1.38;0.60;;;;;;;8.96;67.76;94633.44;5024135;28;20021;-92
2022/11/07 04:38:42;;;;;;;1.48;0.68;;;;;;;8.95;68.59;94644.16;5024287;28;20119;-92
2022/11/07 04:41:17;;;;;;;1.50;0.85;;;;;;;9.02;69.50;94644.72;5024209;28;20056;-93
2022/11/07 04:43:43;;;;;;;0.63;0.55;;;;;;;8.90;69.60;94640.50;5004617;28;20091;-92
2022/11/07 04:46:08;;;;;;;0.82;0.55;;;;;;;8.86;70.02;94644.63;5004305;28;20029;-91
2022/11/07 04:48:34;;;;;;;0.90;0.60;;;;;;;8.79;71.15;94643.25;5019863;28;20029;-92
2022/11/07 04:50:59;;;;;;;0.93;0.52;;;;;;;8.67;71.47;94646.03;5004075;28;20112;-92
2022/11/07 04:53:24;;;;;;;1.27;0.57;;;;;;;8.74;69.40;94639.56;5004187;28;20056;-92
2022/11/07 04:55:50;;;;;;;0.88;0.50;;;;;;;8.83;69.16;94650.34;5004126;28;20080;-92
2022/11/07 04:58:18;;;;;;;2.05;0.68;;;;;;;8.95;68.13;94652.78;5004187;28;20025;-93
2022/11/07 05:00:43;;;;;;;0.70;0.57;;;;;;;8.91;67.87;94654.31;5003774;28;20063;-92
2022/11/07 05:03:09;;;;;;;0.95;0.55;;;;;;;8.93;68.30;94654.09;5003903;28;20473;-92
2022/11/07 05:05:34;;;;;;;0.73;0.60;;;;;;;8.82;69.95;94658.41;5004001;28;20026;-92
2022/11/07 05:07:59;;;;;;;0.60;0.40;;;;;;;8.96;67.38;94658.81;5020454;28;20033;-92
2022/11/07 05:10:27;;;;;;;1.10;0.70;;;;;;;9.09;65.59;94653.16;5003866;28;20316;-92
2022/11/07 05:12:53;;;;;;;1.50;0.40;;;;;;;8.96;66.41;94658.81;5003816;28;20039;-91
2022/11/07 05:15:22;;;;;;;2.70;0.50;;;;;;;8.84;66.68;94659.75;5004115;28;20029;-92
2022/11/07 05:17:48;;;;;;;0.70;0.40;;;;;;;8.74;67.28;94665.69;5020215;28;20052;-92
2022/11/07 05:20:37;;;;;;;1.13;0.50;;;;;;;8.75;67.71;94661.22;5019907;28;20037;-92
2022/11/07 05:23:12;;;;;;;0.45;0.30;;;;;;;8.67;63.18;94665.09;5003714;28;20091;-93
2022/11/07 05:25:57;;;;;;;0.57;0.30;;;;;;;8.89;60.73;94672.09;5004957;28;20029;-92
2022/11/07 05:28:28;;;;;;;0.47;0.28;;;;;;;8.91;59.93;94683.06;5003350;28;20037;-92
2022/11/07 05:30:58;;;;;;;0.40;0.30;;;;;;;8.87;59.76;94680.16;5003265;28;20025;-92
2022/11/07 05:33:23;;;;;;;0.60;0.40;;;;;;;8.73;60.29;94678.97;5020024;28;20036;-92
2022/11/07 05:35:48;;;;;;;0.65;0.30;;;;;;;8.66;60.11;94688.84;5003678;28;20021;-92
2022/11/07 05:38:14;;;;;;;0.20;0.20;;;;;;;8.67;60.49;94679.97;5003692;28;20021;-88
2022/11/07 05:40:42;;;;;;;0.40;0.22;;;;;;;8.66;60.74;94687.03;5016519;28;20031;-90
2022/11/07 05:43:10;;;;;;;2.00;0.40;;;;;;;8.51;60.32;94686.88;5016816;28;20020;-91
2022/11/07 05:45:36;;;;;;;0.60;0.40;;;;;;;8.44;61.77;94687.03;5059919;28;20024;-92
2022/11/07 05:48:05;;;;;;;0.47;0.30;;;;;;;8.38;61.00;94690.63;5032090;28;20485;-92
2022/11/07 05:50:30;;;;;;;2.25;0.40;;;;;;;8.30;61.09;94684.81;5022835;28;20119;-90
2022/11/07 05:52:56;;;;;;;1.55;0.30;;;;;;;8.43;60.36;94683.66;5031303;28;20059;-91
2022/11/07 05:55:23;;;;;;;1.83;0.43;;;;;;;8.42;60.98;94671.63;5023114;28;20021;-92
2022/11/07 05:57:48;;;;;;;1.35;0.40;;;;;;;8.47;60.75;94682.13;5043141;28;20302;-90
2022/11/07 06:00:14;;;;;;;0.55;0.30;;;;;;;8.26;62.48;94688.94;5045934;28;20071;-92
2022/11/07 06:02:40;;;;;;;0.32;0.32;;;;;;;8.34;64.44;94698.97;5027208;28;20115;-93
2022/11/07 06:05:05;;;;;;;0.30;0.30;;;;;;;8.28;65.47;94696.53;5026959;28;20056;-92
2022/11/07 06:07:35;;;;;;;1.40;0.30;;;;;;;8.17;65.03;94695.59;5027130;28;20025;-92
2022/11/07 06:10:00;;;;;;;0.30;0.30;;;;;;;8.13;65.19;94702.34;5027093;28;20094;-92
2022/11/07 06:12:26;;;;;;;0.93;0.50;;;;;;;8.15;66.79;94695.06;5026924;28;20021;-93
2022/11/07 06:14:51;;;;;;;1.25;0.40;;;;;;;7.98;66.93;94692.53;5027103;28;20081;-92
2022/11/07 06:17:17;;;;;;;1.58;0.50;;;;;;;8.00;67.46;94696.47;5026702;28;20049;-93
2022/11/07 06:19:42;;;;;;;0.50;0.38;;;;;;;8.15;70.14;94697.69;5043221;28;20032;-92
2022/11/07 06:22:08;;;;;;;2.10;0.50;;;;;;;8.14;69.88;94703.94;5026731;28;20029;-90
2022/11/07 06:24:33;;;;;;;0.45;0.40;;;;;;;8.27;69.78;94700.97;5026833;28;20021;-90
2022/11/07 06:26:59;;;;;;;0.80;0.30;;;;;;;8.49;68.62;94706.16;5042541;28;20047;-89
2022/11/07 06:29:26;;;;;;;0.63;0.40;;;;;;;8.65;70.10;94706.34;5026656;28;20021;-90
2022/11/07 06:31:52;;;;;;;1.75;0.45;;;;;;;8.77;70.36;94703.59;5026215;28;20226;-90
2022/11/07 06:34:17;;;;;;;0.90;0.50;;;;;;;8.82;69.72;94716.69;5042686;28;20021;-90
2022/11/07 06:36:43;;;;;;;0.65;0.45;;;;;;;8.98;69.25;94712.41;5026211;28;20025;-90
2022/11/07 06:39:35;;;;;;;0.77;0.70;;;;;;;9.26;65.75;94715.78;5026649;28;20017;-89
2022/11/07 06:42:00;;;;;;;1.75;0.50;;;;;;;9.29;65.55;94717.09;5042724;28;20157;-90
2022/11/07 06:44:26;;;;;;;1.23;0.65;;;;;;;9.31;66.56;94726.25;5042434;28;20028;-90
2022/11/07 06:46:51;;;;;;;1.02;0.60;;;;;;;9.31;65.95;94725.47;5026082;28;20119;-90
2022/11/07 06:49:17;;;;;;;1.60;0.60;;;;;;;9.42;66.45;94723.75;5025972;28;20087;-90
2022/11/07 06:51:42;;;;;;;0.73;0.50;;;;;;;9.50;66.52;94725.09;5025820;28;20036;-90
2022/11/07 06:54:08;;;;;;;0.90;0.68;;;;;;;9.58;65.52;94729.84;5025636;28;20029;-90
2022/11/07 06:56:33;;;;;;;1.40;0.82;;;;;;;9.55;64.82;94730.34;5042286;28;20453;-90
2022/11/07 06:58:59;;;;;;;1.80;0.60;;;;;;;9.61;65.13;94742.41;5020607;28;20030;-90
2022/11/07 07:01:24;;;;;;;0.63;0.43;;;;;;;9.79;66.83;94746.47;5025089;28;20048;-90
2022/11/07 07:03:49;;;;;;;0.80;0.32;;;;;;;9.91;64.92;94751.53;5050570;28;20087;-90
2022/11/07 07:06:15;;;;;;;0.40;0.40;;;;;;;10.06;64.11;94753.44;5045504;28;20032;-91
2022/11/07 07:08:41;;;;;;;0.68;0.40;;;;;;;10.20;62.73;94753.78;5062036;28;20047;-90
2022/11/07 07:11:09;;;;;;;0.90;0.55;;;;;;;10.38;62.92;94759.59;5044668;28;20078;-90
2022/11/07 07:13:35;;;;;;;0.52;0.35;;;;;;;10.42;61.75;94753.63;5061582;28;20031;-90
2022/11/07 07:16:01;;;;;;;0.70;0.40;;;;;;;10.51;62.02;94764.41;5045790;28;20024;-90
2022/11/07 07:18:27;;;;;;;1.00;0.43;;;;;;;10.53;62.86;94767.56;5061569;28;20028;-90
2022/11/07 07:21:00;;;;;;;0.88;0.47;;;;;;;10.64;71.00;94770.22;5044825;28;20032;-90
2022/11/07 07:23:26;;;;;;;0.60;0.40;;;;;;;10.67;68.85;94777.56;5061633;28;20048;-91
2022/11/07 07:25:51;;;;;;;0.45;0.45;;;;;;;10.78;67.87;94779.16;5061885;28;20087;-90
2022/11/07 07:28:17;;;;;;;0.70;0.55;;;;;;;10.88;67.94;94776.56;5061630;28;20487;-90
2022/11/07 07:30:42;;;;;;;0.50;0.50;;;;;;;10.94;71.17;94784.44;5061688;28;20036;-90
2022/11/07 07:33:08;;;;;;;2.20;0.77;;;;;;;11.03;73.11;94788.13;5045145;28;20029;-89
2022/11/07 07:35:33;;;;;;;1.00;0.50;;;;;;;11.03;77.53;94788.13;5061615;28;20368;-89
2022/11/07 07:37:59;;;;;;;1.33;0.60;;;;;;;11.11;76.17;94794.69;5027667;28;20061;-89
2022/11/07 07:40:24;;;;;;;1.30;0.50;;;;;;;11.15;75.28;94793.16;5005502;28;20032;-90
2022/11/07 07:42:49;;;;;;;0.88;0.50;;;;;;;11.22;76.95;94801.53;5021858;28;20025;-89
2022/11/07 07:45:17;;;;;;;1.38;0.55;;;;;;;11.36;74.92;94798.41;5038593;28;20052;-90
2022/11/07 07:47:43;;;;;;;1.58;0.60;;;;;;;11.49;74.99;94799.75;5021958;28;20128;-89
2022/11/07 07:50:10;;;;;;;1.23;0.50;;;;;;;11.64;76.24;94802.38;5038072;28;20387;-89
2022/11/07 07:52:37;;;;;;;0.73;0.47;;;;;;;11.70;75.68;94809.19;5021393;28;20029;-89
2022/11/07 07:55:04;;;;;;;1.50;0.82;;;;;;;11.73;73.49;94813.13;5038873;28;20347;-89
2022/11/07 07:57:29;;;;;;;1.17;0.73;;;;;;;11.79;72.10;94809.44;5037982;28;20032;-89
2022/11/07 07:59:55;;;;;;;0.80;0.50;;;;;;;11.80;70.18;94810.25;5021534;28;20426;-88
2022/11/07 08:02:20;;;;;;;2.65;0.75;;;;;;;11.87;68.89;94816.78;5038724;28;20029;-89
2022/11/07 08:04:46;;;;;;;2.15;0.50;;;;;;;11.89;70.66;94813.88;5008899;28;20067;-89
2022/11/07 08:07:11;;;;;;;1.85;0.57;;;;;;;11.91;69.35;94816.25;5021090;28;20029;-89
2022/11/07 08:09:36;;;;;;;0.70;0.40;;;;;;;11.95;67.76;94812.03;5020993;28;20029;-88
2022/11/07 08:12:03;;;;;;;1.90;0.73;;;;;;;11.90;72.51;94804.19;5037487;28;20041;-88
2022/11/07 08:14:29;;;;;;;1.10;0.60;;;;;;;11.99;72.33;94810.50;5020656;28;20052;-88
2022/11/07 08:16:54;;;;;;;2.83;0.50;;;;;;;11.91;63.21;94818.88;5037468;28;20029;-90
2022/11/07 08:19:20;;;;;;;0.73;0.50;;;;;;;12.03;61.81;94822.06;5026809;28;20120;-89
2022/11/07 08:21:45;;;;;;;1.52;0.65;;;;;;;12.12;66.68;94822.31;5020718;28;20403;-88
2022/11/07 08:24:11;;;;;;;1.70;0.40;;;;;;;12.14;65.43;94828.06;5040855;28;20024;-89
2022/11/07 08:26:36;;;;;;;0.88;0.40;;;;;;;12.16;62.67;94829.41;5040220;28;20449;-88
2022/11/07 08:29:02;;;;;;;1.15;0.63;;;;;;;12.19;62.38;94824.66;5040239;28;20033;-88
2022/11/07 08:31:28;;;;;;;1.00;0.50;;;;;;;12.29;60.91;94829.91;5039693;28;20032;-88
2022/11/07 08:33:57;;;;;;;0.73;0.55;;;;;;;12.44;63.35;94832.50;5023918;28;20029;-88
2022/11/07 08:36:22;;;;;;;1.13;0.55;;;;;;;12.48;61.08;94837.19;5040112;28;20460;-87
2022/11/07 08:38:48;;;;;;;1.00;0.60;;;;;;;12.57;60.91;94839.00;5039822;28;20086;-87
2022/11/07 08:41:13;;;;;;;1.20;0.50;;;;;;;12.35;63.76;94839.34;5039997;28;20064;-87
2022/11/07 08:43:39;;;;;;;0.88;0.55;;;;;;;12.65;60.83;94842.16;5023170;28;20036;-87
2022/11/07 08:46:04;;;;;;;2.22;0.70;;;;;;;12.66;60.25;94843.72;5023532;28;20029;-87
2022/11/07 08:48:30;;;;;;;0.50;0.40;;;;;;;12.63;56.76;94841.66;5041623;28;20505;-86
2022/11/07 08:50:56;;;;;;;0.75;0.40;;;;;;;12.84;57.14;94844.97;5019688;28;20435;-87
2022/11/07 08:53:23;;;;;;;1.25;0.60;;;;;;;13.03;57.58;94845.13;5020343;28;20029;-87
2022/11/07 08:55:49;;;;;;;1.10;0.50;;;;;;;13.19;56.67;94845.06;5003744;28;20457;-87
2022/11/07 08:58:14;;;;;;;1.88;0.63;;;;;;;13.27;55.15;94841.88;5029190;28;20025;-87
2022/11/07 09:00:40;;;;;;;1.15;0.70;;;;;;;13.37;55.82;94857.59;5057387;28;20120;-87
2022/11/07 09:03:07;;;;;;;1.42;0.90;;;;;;;13.49;57.74;94848.63;5025032;28;20311;-87
2022/11/07 09:05:33;;;;;;;1.13;0.50;;;;;;;13.57;57.91;94848.03;5029141;28;20052;-87
2022/11/07 09:08:02;;;;;;;1.35;0.85;;;;;;;13.65;58.86;94858.00;5031734;28;20024;-86
2022/11/07 09:10:28;;;;;;;1.52;0.65;;;;;;;13.73;59.77;94853.19;5022429;28;20037;-87
2022/11/07 09:12:53;;;;;;;1.17;0.65;;;;;;;13.79;60.05;94854.72;5036182;28;20037;-87
2022/11/07 09:15:19;;;;;;;2.25;0.75;;;;;;;13.88;59.11;94855.69;5035900;28;20035;-87
2022/11/07 09:17:45;;;;;;;3.63;0.63;;;;;;;13.94;59.75;94859.88;5019940;28;20087;-86
2022/11/07 09:20:12;;;;;;;1.05;0.50;;;;;;;13.99;59.66;94862.47;5019291;28;20124;-86
2022/11/07 09:22:38;;;;;;;1.10;0.63;;;;;;;14.05;59.89;94860.56;5003285;28;20123;-87
2022/11/07 09:25:04;;;;;;;0.93;0.52;;;;;;;14.08;58.01;94864.50;5019588;28;20040;-87
2022/11/07 09:27:29;;;;;;;0.88;0.60;;;;;;;14.15;57.89;94859.69;5014065;28;20084;-86
2022/11/07 09:29:55;;;;;;;1.02;0.73;;;;;;;14.29;58.64;94859.84;5019367;28;20073;-87
2022/11/07 09:32:20;;;;;;;1.13;0.52;;;;;;;14.42;57.95;94868.94;5035819;28;20071;-87
2022/11/07 09:34:45;;;;;;;1.48;0.65;;;;;;;14.49;58.15;94861.50;5018972;28;20025;-87
2022/11/07 09:37:11;;;;;;;1.25;0.60;;;;;;;14.63;58.55;94858.16;5035760;28;20496;-87
2022/11/07 09:39:36;;;;;;;0.88;0.60;;;;;;;14.69;58.05;94857.06;5019582;28;20022;-85
2022/11/07 09:42:09;;;;;;;4.20;0.73;;;;;;;14.75;55.28;94861.22;5036568;28;20025;-88
2022/11/07 09:44:39;;;;;;;1.92;0.80;;;;;;;14.89;56.75;94865.81;5035759;28;20025;-87
2022/11/07 09:47:13;;;;;;;0.65;0.40;;;;;;;15.05;56.98;94859.28;5039162;28;20448;-85
2022/11/07 09:49:47;;;;;;;1.15;0.70;;;;;;;14.97;56.99;94862.56;5056408;28;20032;-87
2022/11/07 09:52:37;;;;;;;1.77;0.70;;;;;;;14.91;57.16;94867.13;5038568;28;20078;-85
2022/11/07 09:55:12;;;;;;;2.55;0.90;;;;;;;15.15;58.46;94865.50;5056411;28;20029;-84
2022/11/07 09:57:37;;;;;;;1.20;0.60;;;;;;;15.22;59.05;94871.25;5056475;28;20052;-85
2022/11/07 10:00:10;;;;;;;0.95;0.70;;;;;;;15.42;59.27;94867.53;5022324;28;20079;-85
2022/11/07 10:02:40;;;;;;;3.15;0.80;;;;;;;15.50;56.36;94866.88;5022783;28;20060;-85
2022/11/07 10:05:11;;;;;;;1.58;0.70;;;;;;;15.55;56.64;94866.03;5018887;28;20346;-85
2022/11/07 10:08:05;;;;;;;1.45;0.70;;;;;;;15.61;54.64;94864.13;5002812;28;20420;-85
2022/11/07 10:10:57;;;;;;;1.38;0.73;;;;;;;15.79;54.92;94863.31;5016553;28;20397;-85
2022/11/07 10:13:25;;;;;;;5.10;0.90;;;;;;;15.68;53.64;94860.03;5020529;28;20076;-86
2022/11/07 10:16:16;;;;;;;1.33;0.70;;;;;;;15.65;50.66;94863.25;5018921;28;20022;-86
2022/11/07 10:19:00;;;;;;;2.83;0.88;;;;;;;15.72;53.74;94865.53;4983452;28;20088;-85
2022/11/07 10:21:43;;;;;;;1.52;0.60;;;;;;;15.80;52.00;94856.94;5018572;28;20033;-85
2022/11/07 10:24:30;;;;;;;1.08;0.60;;;;;;;15.83;50.44;94850.31;5018754;28;20049;-85
2022/11/07 10:26:57;;;;;;;5.32;0.80;;;;;;;15.92;50.99;94853.91;5036101;28;20052;-85
2022/11/07 10:29:27;;;;;;;1.70;0.80;;;;;;;15.87;49.28;94853.94;5002419;28;20033;-86
2022/11/07 10:32:07;;;;;;;1.63;0.70;;;;;;;15.88;52.71;94854.72;5019116;28;20029;-84
2022/11/07 10:34:35;;;;;;;1.30;0.70;;;;;;;15.79;49.58;94844.81;5018667;28;20095;-86
2022/11/07 10:37:01;;;;;;;2.45;0.95;;;;;;;15.84;51.04;94851.88;5002467;28;20124;-85
2022/11/07 10:39:29;;;;;;;3.25;0.70;;;;;;;15.82;52.11;94846.09;5018382;28;20107;-84
2022/11/07 10:42:06;;;;;;;1.15;0.70;;;;;;;15.92;52.32;94838.03;5018389;28;20033;-84
2022/11/07 10:44:33;;;;;;;3.50;0.95;;;;;;;16.01;51.85;94838.16;5009985;28;20021;-86
2022/11/07 10:46:58;;;;;;;1.20;0.73;;;;;;;16.15;51.37;94838.19;5037952;28;20021;-89
2022/11/07 10:49:26;;;;;;;0.90;0.60;;;;;;;16.01;51.39;94835.53;5042573;28;20108;-87
2022/11/07 10:51:52;;;;;;;1.13;0.80;;;;;;;16.24;52.26;94844.38;5059350;28;20025;-88
2022/11/07 10:54:28;;;;;;;3.33;0.70;;;;;;;16.28;49.63;94841.91;5025689;28;20047;-88
2022/11/07 10:57:13;;;;;;;1.75;0.88;;;;;;;16.10;49.57;94846.22;5023061;28;20028;-90
2022/11/07 10:59:43;;;;;;;1.05;0.70;;;;;;;16.30;48.46;94842.44;5028467;28;20032;-88
2022/11/07 11:02:20;;;;;;;2.83;1.10;;;;;;;16.35;49.46;94833.59;5027952;28;20377;-88
2022/11/07 11:04:50;;;;;;;2.70;1.02;;;;;;;16.34;49.79;94829.38;5025814;28;20104;-88
2022/11/07 11:07:15;;;;;;;3.00;0.93;;;;;;;16.37;52.00;94831.47;5041503;28;20032;-88
2022/11/07 11:09:54;;;;;;;6.35;1.48;;;;;;;16.67;51.12;94834.63;5025565;28;20028;-87
2022/11/07 11:12:54;;;;;;;3.30;1.35;;;;;;;16.46;49.54;94826.28;5050233;28;20120;-91
2022/11/07 11:15:47;;;;;;;2.85;1.00;;;;;;;16.34;48.88;94824.09;5001074;28;20076;-89
2022/11/07 11:18:15;;;;;;;2.85;1.05;;;;;;;16.40;49.17;94820.31;5038881;28;20448;-90
2022/11/07 11:20:43;;;;;;;3.35;1.02;;;;;;;16.67;49.91;94824.03;5024806;28;20053;-89
2022/11/07 11:23:26;;;;;;;2.50;1.30;;;;;;;16.66;52.06;94823.25;5025613;28;20032;-90
2022/11/07 11:25:59;;;;;;;3.15;1.30;;;;;;;16.68;52.04;94825.59;5025544;28;20028;-90
2022/11/07 11:28:30;;;;;;;5.63;1.20;;;;;;;16.93;51.96;94831.47;5025036;28;20029;-89
2022/11/07 11:31:00;;;;;;;4.43;1.35;;;;;;;16.90;50.09;94827.53;5041033;28;20112;-89
2022/11/07 11:33:31;;;;;;;2.28;1.20;;;;;;;16.98;49.95;94833.22;5025438;28;20031;-90
2022/11/07 11:36:09;;;;;;;3.75;1.40;;;;;;;17.13;50.68;94834.81;5025147;28;20116;-90
2022/11/07 11:38:38;;;;;;;2.30;1.20;;;;;;;16.95;50.07;94837.25;5025312;28;20028;-88
2022/11/07 11:41:15;;;;;;;2.38;1.08;;;;;;;16.88;49.18;94835.00;5025123;28;20025;-88
2022/11/07 11:43:46;;;;;;;4.72;1.25;;;;;;;16.95;48.80;94835.38;5025190;28;20036;-89
2022/11/07 11:46:25;;;;;;;2.35;1.30;;;;;;;16.95;50.40;94839.91;5025199;28;20025;-89
2022/11/07 11:49:43;;;;;;;3.03;1.63;;;;;;;16.64;50.39;94840.47;5025060;28;20029;-92
2022/11/07 11:52:18;;;;;;;7.07;1.80;;;;;;;16.45;51.63;94833.41;5056926;28;20416;-92
2022/11/07 11:54:44;;;;;;;3.75;1.30;;;;;;;16.32;53.09;94835.00;5041689;28;20105;-90
2022/11/07 11:57:22;;;;;;;2.58;1.20;;;;;;;16.86;51.20;94839.81;5024606;28;20052;-88